sensor_id;sensor_type;location;lat;lon;timestamp;P1;durP1;ratioP1;P2;durP2;ratioP2
15281;SDS011;7742;44.320;19.820;2023-07-29T00:00:18;19.23;;;18.13;;
15281;SDS011;7742;44.320;19.820;2023-07-29T00:05:54;19.60;;;18.60;;
15281;SDS011;7742;44.320;19.820;2023-07-29T00:08:21;19.00;;;18.00;;
15281;SDS011;7742;44.320;19.820;2023-07-29T00:10:48;17.50;;;16.67;;
15281;SDS011;7742;44.320;19.820;2023-07-29T00:13:15;18.90;;;17.90;;
15281;SDS011;7742;44.320;19.820;2023-07-29T00:15:43;18.67;;;17.77;;
15281;SDS011;7742;44.320;19.820;2023-07-29T00:18:10;18.97;;;17.97;;
15281;SDS011;7742;44.320;19.820;2023-07-29T00:20:37;18.92;;;17.92;;
15281;SDS011;7742;44.320;19.820;2023-07-29T00:23:04;19.38;;;18.17;;
15281;SDS011;7742;44.320;19.820;2023-07-29T00:25:31;19.80;;;18.70;;
15281;SDS011;7742;44.320;19.820;2023-07-29T00:27:58;19.40;;;18.30;;
15281;SDS011;7742;44.320;19.820;2023-07-29T00:30:25;18.63;;;17.50;;
15281;SDS011;7742;44.320;19.820;2023-07-29T00:32:53;18.52;;;17.52;;
15281;SDS011;7742;44.320;19.820;2023-07-29T00:35:20;18.23;;;17.33;;
15281;SDS011;7742;44.320;19.820;2023-07-29T00:37:47;18.30;;;17.30;;
15281;SDS011;7742;44.320;19.820;2023-07-29T00:40:15;18.92;;;17.92;;
15281;SDS011;7742;44.320;19.820;2023-07-29T00:42:42;18.90;;;17.90;;
15281;SDS011;7742;44.320;19.820;2023-07-29T00:45:09;18.92;;;17.83;;
15281;SDS011;7742;44.320;19.820;2023-07-29T00:47:36;18.60;;;17.70;;
15281;SDS011;7742;44.320;19.820;2023-07-29T00:50:05;18.63;;;17.63;;
15281;SDS011;7742;44.320;19.820;2023-07-29T00:52:32;18.63;;;17.45;;
15281;SDS011;7742;44.320;19.820;2023-07-29T00:55:00;18.40;;;17.50;;
15281;SDS011;7742;44.320;19.820;2023-07-29T00:57:27;18.20;;;17.30;;
15281;SDS011;7742;44.320;19.820;2023-07-29T00:59:54;18.50;;;17.60;;
15281;SDS011;7742;44.320;19.820;2023-07-29T01:02:21;18.20;;;17.30;;
15281;SDS011;7742;44.320;19.820;2023-07-29T01:04:52;18.35;;;17.35;;
15281;SDS011;7742;44.320;19.820;2023-07-29T01:07:37;18.60;;;17.70;;
15281;SDS011;7742;44.320;19.820;2023-07-29T01:10:07;19.08;;;18.08;;
15281;SDS011;7742;44.320;19.820;2023-07-29T01:12:37;19.05;;;18.05;;
15281;SDS011;7742;44.320;19.820;2023-07-29T01:18:13;18.88;;;17.88;;
15281;SDS011;7742;44.320;19.820;2023-07-29T01:20:42;18.52;;;17.52;;
15281;SDS011;7742;44.320;19.820;2023-07-29T01:23:12;19.23;;;18.13;;
15281;SDS011;7742;44.320;19.820;2023-07-29T01:25:41;18.90;;;17.90;;
15281;SDS011;7742;44.320;19.820;2023-07-29T01:28:07;18.47;;;17.47;;
15281;SDS011;7742;44.320;19.820;2023-07-29T01:30:37;17.35;;;16.55;;
15281;SDS011;7742;44.320;19.820;2023-07-29T01:33:06;17.10;;;16.20;;
15281;SDS011;7742;44.320;19.820;2023-07-29T01:35:39;17.60;;;16.70;;
15281;SDS011;7742;44.320;19.820;2023-07-29T01:38:09;17.60;;;16.70;;
15281;SDS011;7742;44.320;19.820;2023-07-29T01:40:36;18.20;;;17.27;;
15281;SDS011;7742;44.320;19.820;2023-07-29T01:43:05;18.83;;;17.92;;
15281;SDS011;7742;44.320;19.820;2023-07-29T01:45:33;19.20;;;18.10;;
15281;SDS011;7742;44.320;19.820;2023-07-29T01:48:03;18.75;;;17.75;;
15281;SDS011;7742;44.320;19.820;2023-07-29T01:50:30;18.07;;;17.17;;
15281;SDS011;7742;44.320;19.820;2023-07-29T01:52:57;18.80;;;17.77;;
15281;SDS011;7742;44.320;19.820;2023-07-29T01:55:24;18.30;;;17.40;;
15281;SDS011;7742;44.320;19.820;2023-07-29T01:57:51;18.67;;;17.65;;
15281;SDS011;7742;44.320;19.820;2023-07-29T02:00:20;19.50;;;18.40;;
15281;SDS011;7742;44.320;19.820;2023-07-29T02:02:47;19.40;;;18.40;;
15281;SDS011;7742;44.320;19.820;2023-07-29T02:05:14;18.80;;;17.80;;
15281;SDS011;7742;44.320;19.820;2023-07-29T02:07:41;18.58;;;17.58;;
15281;SDS011;7742;44.320;19.820;2023-07-29T02:10:08;18.80;;;17.70;;
15281;SDS011;7742;44.320;19.820;2023-07-29T02:12:35;19.20;;;18.20;;
15281;SDS011;7742;44.320;19.820;2023-07-29T02:15:02;19.10;;;18.10;;
15281;SDS011;7742;44.320;19.820;2023-07-29T02:17:31;19.10;;;18.10;;
15281;SDS011;7742;44.320;19.820;2023-07-29T02:19:58;19.13;;;18.13;;
15281;SDS011;7742;44.320;19.820;2023-07-29T02:22:25;19.25;;;18.35;;
15281;SDS011;7742;44.320;19.820;2023-07-29T02:24:52;19.45;;;18.40;;
15281;SDS011;7742;44.320;19.820;2023-07-29T02:27:23;18.88;;;17.77;;
15281;SDS011;7742;44.320;19.820;2023-07-29T02:29:52;18.67;;;17.60;;
15281;SDS011;7742;44.320;19.820;2023-07-29T02:32:19;19.83;;;18.83;;
15281;SDS011;7742;44.320;19.820;2023-07-29T02:34:48;18.48;;;17.58;;
15281;SDS011;7742;44.320;19.820;2023-07-29T02:37:15;18.13;;;17.27;;
15281;SDS011;7742;44.320;19.820;2023-07-29T02:39:42;19.03;;;17.93;;
15281;SDS011;7742;44.320;19.820;2023-07-29T02:42:09;18.38;;;17.48;;
15281;SDS011;7742;44.320;19.820;2023-07-29T02:44:36;18.67;;;17.73;;
15281;SDS011;7742;44.320;19.820;2023-07-29T02:47:03;18.55;;;17.65;;
15281;SDS011;7742;44.320;19.820;2023-07-29T02:49:30;18.88;;;17.88;;
15281;SDS011;7742;44.320;19.820;2023-07-29T02:51:58;18.85;;;17.85;;
15281;SDS011;7742;44.320;19.820;2023-07-29T02:54:25;18.85;;;17.95;;
15281;SDS011;7742;44.320;19.820;2023-07-29T02:57:06;18.90;;;17.90;;
15281;SDS011;7742;44.320;19.820;2023-07-29T02:59:33;17.98;;;17.08;;
15281;SDS011;7742;44.320;19.820;2023-07-29T03:05:18;17.63;;;16.67;;
15281;SDS011;7742;44.320;19.820;2023-07-29T03:07:47;17.85;;;16.85;;
15281;SDS011;7742;44.320;19.820;2023-07-29T03:10:14;18.50;;;17.50;;
15281;SDS011;7742;44.320;19.820;2023-07-29T03:12:41;19.20;;;18.10;;
15281;SDS011;7742;44.320;19.820;2023-07-29T03:15:08;18.60;;;17.70;;
15281;SDS011;7742;44.320;19.820;2023-07-29T03:17:35;18.75;;;17.77;;
15281;SDS011;7742;44.320;19.820;2023-07-29T03:20:02;19.20;;;18.20;;
15281;SDS011;7742;44.320;19.820;2023-07-29T03:22:29;19.43;;;18.43;;
15281;SDS011;7742;44.320;19.820;2023-07-29T03:24:57;18.80;;;17.80;;
15281;SDS011;7742;44.320;19.820;2023-07-29T03:27:24;19.23;;;18.20;;
15281;SDS011;7742;44.320;19.820;2023-07-29T03:29:51;21.00;;;19.90;;
15281;SDS011;7742;44.320;19.820;2023-07-29T03:32:18;19.20;;;18.20;;
15281;SDS011;7742;44.320;19.820;2023-07-29T03:34:45;18.10;;;17.20;;
15281;SDS011;7742;44.320;19.820;2023-07-29T03:37:12;17.70;;;16.80;;
15281;SDS011;7742;44.320;19.820;2023-07-29T03:39:39;18.05;;;17.05;;
15281;SDS011;7742;44.320;19.820;2023-07-29T03:42:07;17.50;;;16.60;;
15281;SDS011;7742;44.320;19.820;2023-07-29T03:44:34;17.77;;;16.77;;
15281;SDS011;7742;44.320;19.820;2023-07-29T03:47:01;17.77;;;16.88;;
15281;SDS011;7742;44.320;19.820;2023-07-29T03:49:28;17.80;;;16.80;;
15281;SDS011;7742;44.320;19.820;2023-07-29T03:51:55;18.75;;;17.85;;
15281;SDS011;7742;44.320;19.820;2023-07-29T03:54:22;18.05;;;16.95;;
15281;SDS011;7742;44.320;19.820;2023-07-29T03:56:49;18.48;;;17.30;;
15281;SDS011;7742;44.320;19.820;2023-07-29T03:59:18;19.15;;;18.05;;
15281;SDS011;7742;44.320;19.820;2023-07-29T04:01:45;18.90;;;17.90;;
15281;SDS011;7742;44.320;19.820;2023-07-29T04:04:12;19.58;;;18.50;;
15281;SDS011;7742;44.320;19.820;2023-07-29T04:06:39;18.60;;;17.60;;
15281;SDS011;7742;44.320;19.820;2023-07-29T04:09:06;18.52;;;17.55;;
15281;SDS011;7742;44.320;19.820;2023-07-29T04:11:34;18.63;;;17.73;;
15281;SDS011;7742;44.320;19.820;2023-07-29T04:14:01;18.98;;;17.98;;
15281;SDS011;7742;44.320;19.820;2023-07-29T04:16:30;18.50;;;17.60;;
15281;SDS011;7742;44.320;19.820;2023-07-29T04:18:57;18.00;;;17.10;;
15281;SDS011;7742;44.320;19.820;2023-07-29T04:21:25;18.50;;;17.60;;
15281;SDS011;7742;44.320;19.820;2023-07-29T04:24:03;17.83;;;16.92;;
15281;SDS011;7742;44.320;19.820;2023-07-29T04:26:30;17.58;;;16.67;;
15281;SDS011;7742;44.320;19.820;2023-07-29T04:28:57;18.33;;;17.42;;
15281;SDS011;7742;44.320;19.820;2023-07-29T04:31:25;18.35;;;17.35;;
15281;SDS011;7742;44.320;19.820;2023-07-29T04:33:53;18.55;;;17.55;;
15281;SDS011;7742;44.320;19.820;2023-07-29T04:36:20;18.50;;;17.40;;
15281;SDS011;7742;44.320;19.820;2023-07-29T04:38:47;18.02;;;17.13;;
15281;SDS011;7742;44.320;19.820;2023-07-29T04:41:15;19.30;;;18.40;;
15281;SDS011;7742;44.320;19.820;2023-07-29T04:43:42;20.27;;;19.33;;
15281;SDS011;7742;44.320;19.820;2023-07-29T04:46:18;18.65;;;17.75;;
15281;SDS011;7742;44.320;19.820;2023-07-29T04:48:45;18.58;;;17.58;;
15281;SDS011;7742;44.320;19.820;2023-07-29T04:51:13;18.80;;;17.80;;
15281;SDS011;7742;44.320;19.820;2023-07-29T04:53:40;18.23;;;17.30;;
15281;SDS011;7742;44.320;19.820;2023-07-29T04:56:08;17.63;;;16.73;;
15281;SDS011;7742;44.320;19.820;2023-07-29T04:58:35;18.53;;;17.53;;
15281;SDS011;7742;44.320;19.820;2023-07-29T05:01:02;17.92;;;17.02;;
15281;SDS011;7742;44.320;19.820;2023-07-29T05:03:29;17.80;;;16.90;;
15281;SDS011;7742;44.320;19.820;2023-07-29T05:05:57;18.00;;;17.10;;
15281;SDS011;7742;44.320;19.820;2023-07-29T05:08:26;19.35;;;18.35;;
15281;SDS011;7742;44.320;19.820;2023-07-29T05:10:53;18.98;;;17.98;;
15281;SDS011;7742;44.320;19.820;2023-07-29T05:13:21;19.10;;;18.02;;
15281;SDS011;7742;44.320;19.820;2023-07-29T05:15:48;19.10;;;18.00;;
15281;SDS011;7742;44.320;19.820;2023-07-29T05:18:15;19.10;;;18.00;;
15281;SDS011;7742;44.320;19.820;2023-07-29T05:20:42;20.02;;;18.85;;
15281;SDS011;7742;44.320;19.820;2023-07-29T05:23:09;19.75;;;18.65;;
15281;SDS011;7742;44.320;19.820;2023-07-29T05:25:38;19.30;;;18.10;;
15281;SDS011;7742;44.320;19.820;2023-07-29T05:28:05;18.90;;;17.90;;
15281;SDS011;7742;44.320;19.820;2023-07-29T05:30:32;19.05;;;18.05;;
15281;SDS011;7742;44.320;19.820;2023-07-29T05:33:02;18.65;;;17.73;;
15281;SDS011;7742;44.320;19.820;2023-07-29T05:35:29;18.20;;;17.30;;
15281;SDS011;7742;44.320;19.820;2023-07-29T05:37:56;18.30;;;17.15;;
15281;SDS011;7742;44.320;19.820;2023-07-29T05:40:23;19.05;;;17.85;;
15281;SDS011;7742;44.320;19.820;2023-07-29T05:42:52;18.93;;;18.00;;
15281;SDS011;7742;44.320;19.820;2023-07-29T05:45:19;19.58;;;18.58;;
15281;SDS011;7742;44.320;19.820;2023-07-29T05:47:46;18.83;;;17.77;;
15281;SDS011;7742;44.320;19.820;2023-07-29T05:50:13;19.02;;;18.10;;
15281;SDS011;7742;44.320;19.820;2023-07-29T05:52:58;19.17;;;18.08;;
15281;SDS011;7742;44.320;19.820;2023-07-29T05:55:25;18.50;;;17.50;;
15281;SDS011;7742;44.320;19.820;2023-07-29T05:57:53;18.90;;;18.00;;
15281;SDS011;7742;44.320;19.820;2023-07-29T06:00:20;21.70;;;20.50;;
15281;SDS011;7742;44.320;19.820;2023-07-29T06:02:47;22.20;;;20.92;;
15281;SDS011;7742;44.320;19.820;2023-07-29T06:05:14;21.23;;;20.13;;
15281;SDS011;7742;44.320;19.820;2023-07-29T06:07:41;18.20;;;17.30;;
15281;SDS011;7742;44.320;19.820;2023-07-29T06:10:10;18.73;;;17.63;;
15281;SDS011;7742;44.320;19.820;2023-07-29T06:12:38;18.80;;;17.80;;
15281;SDS011;7742;44.320;19.820;2023-07-29T06:15:07;18.08;;;17.17;;
15281;SDS011;7742;44.320;19.820;2023-07-29T06:17:34;18.65;;;17.77;;
15281;SDS011;7742;44.320;19.820;2023-07-29T06:20:01;19.38;;;18.38;;
15281;SDS011;7742;44.320;19.820;2023-07-29T06:22:28;19.20;;;18.13;;
15281;SDS011;7742;44.320;19.820;2023-07-29T06:24:55;19.13;;;18.05;;
15281;SDS011;7742;44.320;19.820;2023-07-29T06:27:23;18.50;;;17.45;;
15281;SDS011;7742;44.320;19.820;2023-07-29T06:29:50;17.17;;;16.17;;
15281;SDS011;7742;44.320;19.820;2023-07-29T06:32:19;18.30;;;17.30;;
15281;SDS011;7742;44.320;19.820;2023-07-29T06:34:46;18.70;;;17.60;;
15281;SDS011;7742;44.320;19.820;2023-07-29T06:37:13;18.35;;;17.35;;
15281;SDS011;7742;44.320;19.820;2023-07-29T06:39:40;17.40;;;16.50;;
15281;SDS011;7742;44.320;19.820;2023-07-29T06:42:07;19.73;;;18.47;;
15281;SDS011;7742;44.320;19.820;2023-07-29T06:44:33;18.20;;;17.20;;
15281;SDS011;7742;44.320;19.820;2023-07-29T06:47:08;19.43;;;18.30;;
15281;SDS011;7742;44.320;19.820;2023-07-29T06:49:36;18.63;;;17.63;;
15281;SDS011;7742;44.320;19.820;2023-07-29T06:52:03;18.60;;;17.60;;
15281;SDS011;7742;44.320;19.820;2023-07-29T06:54:30;18.40;;;17.30;;
15281;SDS011;7742;44.320;19.820;2023-07-29T06:56:57;18.67;;;17.48;;
15281;SDS011;7742;44.320;19.820;2023-07-29T06:59:24;18.65;;;17.45;;
15281;SDS011;7742;44.320;19.820;2023-07-29T07:01:52;18.52;;;17.52;;
15281;SDS011;7742;44.320;19.820;2023-07-29T07:04:18;23.50;;;22.15;;
15281;SDS011;7742;44.320;19.820;2023-07-29T07:06:47;23.65;;;22.25;;
15281;SDS011;7742;44.320;19.820;2023-07-29T07:09:14;23.42;;;21.92;;
15281;SDS011;7742;44.320;19.820;2023-07-29T07:11:41;22.67;;;21.42;;
15281;SDS011;7742;44.320;19.820;2023-07-29T07:14:08;18.30;;;17.20;;
15281;SDS011;7742;44.320;19.820;2023-07-29T07:16:35;18.42;;;17.33;;
15281;SDS011;7742;44.320;19.820;2023-07-29T07:19:09;17.20;;;16.30;;
15281;SDS011;7742;44.320;19.820;2023-07-29T07:21:36;16.55;;;15.60;;
15281;SDS011;7742;44.320;19.820;2023-07-29T07:24:04;17.40;;;16.30;;
15281;SDS011;7742;44.320;19.820;2023-07-29T07:26:31;19.92;;;18.73;;
15281;SDS011;7742;44.320;19.820;2023-07-29T07:29:00;17.73;;;16.63;;
15281;SDS011;7742;44.320;19.820;2023-07-29T07:31:49;16.85;;;15.85;;
15281;SDS011;7742;44.320;19.820;2023-07-29T07:34:23;19.98;;;18.77;;
15281;SDS011;7742;44.320;19.820;2023-07-29T07:36:50;18.40;;;17.40;;
15281;SDS011;7742;44.320;19.820;2023-07-29T07:39:19;18.77;;;17.67;;
15281;SDS011;7742;44.320;19.820;2023-07-29T07:41:46;17.90;;;16.90;;
15281;SDS011;7742;44.320;19.820;2023-07-29T07:44:13;17.83;;;16.83;;
15281;SDS011;7742;44.320;19.820;2023-07-29T07:46:43;19.07;;;17.97;;
15281;SDS011;7742;44.320;19.820;2023-07-29T07:49:10;19.08;;;17.98;;
15281;SDS011;7742;44.320;19.820;2023-07-29T07:51:37;17.60;;;16.60;;
15281;SDS011;7742;44.320;19.820;2023-07-29T07:54:05;19.80;;;18.70;;
15281;SDS011;7742;44.320;19.820;2023-07-29T07:56:33;20.07;;;18.87;;
15281;SDS011;7742;44.320;19.820;2023-07-29T07:59:00;20.15;;;19.05;;
15281;SDS011;7742;44.320;19.820;2023-07-29T08:01:27;21.00;;;19.85;;
15281;SDS011;7742;44.320;19.820;2023-07-29T08:03:54;20.27;;;19.05;;
15281;SDS011;7742;44.320;19.820;2023-07-29T08:06:21;19.73;;;18.65;;
15281;SDS011;7742;44.320;19.820;2023-07-29T08:08:48;19.23;;;18.20;;
15281;SDS011;7742;44.320;19.820;2023-07-29T08:11:15;19.45;;;18.35;;
15281;SDS011;7742;44.320;19.820;2023-07-29T08:13:43;19.70;;;18.50;;
15281;SDS011;7742;44.320;19.820;2023-07-29T08:16:10;19.15;;;18.08;;
15281;SDS011;7742;44.320;19.820;2023-07-29T08:18:37;18.42;;;17.42;;
15281;SDS011;7742;44.320;19.820;2023-07-29T08:21:04;19.40;;;18.30;;
15281;SDS011;7742;44.320;19.820;2023-07-29T08:23:32;18.55;;;17.55;;
15281;SDS011;7742;44.320;19.820;2023-07-29T08:25:59;17.80;;;16.80;;
15281;SDS011;7742;44.320;19.820;2023-07-29T08:28:27;18.38;;;17.38;;
15281;SDS011;7742;44.320;19.820;2023-07-29T08:30:56;18.55;;;17.55;;
15281;SDS011;7742;44.320;19.820;2023-07-29T08:33:23;18.30;;;17.40;;
15281;SDS011;7742;44.320;19.820;2023-07-29T08:35:50;19.75;;;18.75;;
15281;SDS011;7742;44.320;19.820;2023-07-29T08:38:17;19.02;;;17.98;;
15281;SDS011;7742;44.320;19.820;2023-07-29T08:40:45;19.92;;;18.85;;
15281;SDS011;7742;44.320;19.820;2023-07-29T08:43:12;18.58;;;17.48;;
15281;SDS011;7742;44.320;19.820;2023-07-29T08:45:41;19.27;;;18.17;;
15281;SDS011;7742;44.320;19.820;2023-07-29T08:48:10;19.42;;;18.33;;
15281;SDS011;7742;44.320;19.820;2023-07-29T08:50:37;19.33;;;18.33;;
15281;SDS011;7742;44.320;19.820;2023-07-29T08:53:05;19.80;;;18.80;;
15281;SDS011;7742;44.320;19.820;2023-07-29T08:55:32;21.23;;;20.13;;
15281;SDS011;7742;44.320;19.820;2023-07-29T08:57:59;18.80;;;17.70;;
15281;SDS011;7742;44.320;19.820;2023-07-29T09:00:27;18.90;;;17.80;;
15281;SDS011;7742;44.320;19.820;2023-07-29T09:02:54;19.23;;;18.23;;
15281;SDS011;7742;44.320;19.820;2023-07-29T09:05:24;20.33;;;19.23;;
15281;SDS011;7742;44.320;19.820;2023-07-29T09:07:51;18.90;;;17.90;;
15281;SDS011;7742;44.320;19.820;2023-07-29T09:10:21;19.50;;;18.50;;
15281;SDS011;7742;44.320;19.820;2023-07-29T09:12:48;20.67;;;19.57;;
15281;SDS011;7742;44.320;19.820;2023-07-29T09:15:25;21.17;;;20.08;;
15281;SDS011;7742;44.320;19.820;2023-07-29T09:17:52;19.23;;;18.23;;
15281;SDS011;7742;44.320;19.820;2023-07-29T09:20:24;18.90;;;17.80;;
15281;SDS011;7742;44.320;19.820;2023-07-29T09:22:52;18.00;;;17.00;;
15281;SDS011;7742;44.320;19.820;2023-07-29T09:25:22;17.90;;;16.90;;
15281;SDS011;7742;44.320;19.820;2023-07-29T09:27:49;18.10;;;17.20;;
15281;SDS011;7742;44.320;19.820;2023-07-29T09:30:16;18.60;;;17.70;;
15281;SDS011;7742;44.320;19.820;2023-07-29T09:32:43;20.60;;;19.58;;
15281;SDS011;7742;44.320;19.820;2023-07-29T09:35:10;18.92;;;17.92;;
15281;SDS011;7742;44.320;19.820;2023-07-29T09:37:39;17.90;;;16.90;;
15281;SDS011;7742;44.320;19.820;2023-07-29T09:40:06;18.17;;;17.17;;
15281;SDS011;7742;44.320;19.820;2023-07-29T09:42:40;19.35;;;18.25;;
15281;SDS011;7742;44.320;19.820;2023-07-29T09:45:18;18.70;;;17.70;;
15281;SDS011;7742;44.320;19.820;2023-07-29T09:47:45;18.17;;;17.25;;
15281;SDS011;7742;44.320;19.820;2023-07-29T09:50:12;18.50;;;17.55;;
15281;SDS011;7742;44.320;19.820;2023-07-29T09:52:41;18.73;;;17.63;;
15281;SDS011;7742;44.320;19.820;2023-07-29T09:55:09;18.45;;;17.45;;
15281;SDS011;7742;44.320;19.820;2023-07-29T09:57:36;18.70;;;17.60;;
15281;SDS011;7742;44.320;19.820;2023-07-29T10:00:05;18.35;;;17.35;;
15281;SDS011;7742;44.320;19.820;2023-07-29T10:02:36;18.27;;;17.27;;
15281;SDS011;7742;44.320;19.820;2023-07-29T10:05:04;17.40;;;16.50;;
15281;SDS011;7742;44.320;19.820;2023-07-29T10:07:31;18.13;;;17.13;;
15281;SDS011;7742;44.320;19.820;2023-07-29T10:10:01;18.42;;;17.40;;
15281;SDS011;7742;44.320;19.820;2023-07-29T10:12:29;17.70;;;16.80;;
15281;SDS011;7742;44.320;19.820;2023-07-29T10:14:58;17.42;;;16.42;;
15281;SDS011;7742;44.320;19.820;2023-07-29T10:17:26;17.60;;;16.60;;
15281;SDS011;7742;44.320;19.820;2023-07-29T10:19:53;17.60;;;16.60;;
15281;SDS011;7742;44.320;19.820;2023-07-29T10:22:20;18.63;;;17.60;;
15281;SDS011;7742;44.320;19.820;2023-07-29T10:24:47;18.40;;;17.50;;
15281;SDS011;7742;44.320;19.820;2023-07-29T10:27:17;17.90;;;16.90;;
15281;SDS011;7742;44.320;19.820;2023-07-29T10:29:44;18.33;;;17.23;;
15281;SDS011;7742;44.320;19.820;2023-07-29T10:32:12;19.10;;;18.00;;
15281;SDS011;7742;44.320;19.820;2023-07-29T10:34:38;19.40;;;18.30;;
15281;SDS011;7742;44.320;19.820;2023-07-29T10:37:06;19.88;;;18.77;;
15281;SDS011;7742;44.320;19.820;2023-07-29T10:39:37;18.40;;;17.30;;
15281;SDS011;7742;44.320;19.820;2023-07-29T10:42:05;18.67;;;17.50;;
15281;SDS011;7742;44.320;19.820;2023-07-29T10:44:49;18.40;;;17.25;;
15281;SDS011;7742;44.320;19.820;2023-07-29T10:47:17;20.03;;;18.93;;
15281;SDS011;7742;44.320;19.820;2023-07-29T10:49:45;20.23;;;19.13;;
15281;SDS011;7742;44.320;19.820;2023-07-29T10:52:13;19.58;;;18.48;;
15281;SDS011;7742;44.320;19.820;2023-07-29T10:54:43;18.40;;;17.48;;
15281;SDS011;7742;44.320;19.820;2023-07-29T10:57:13;18.70;;;17.70;;
15281;SDS011;7742;44.320;19.820;2023-07-29T10:59:41;19.67;;;18.58;;
15281;SDS011;7742;44.320;19.820;2023-07-29T11:02:17;19.85;;;18.75;;
15281;SDS011;7742;44.320;19.820;2023-07-29T11:04:48;20.00;;;18.98;;
15281;SDS011;7742;44.320;19.820;2023-07-29T11:07:22;18.65;;;17.55;;
15281;SDS011;7742;44.320;19.820;2023-07-29T11:09:56;19.38;;;18.27;;
15281;SDS011;7742;44.320;19.820;2023-07-29T11:12:36;20.02;;;19.05;;
15281;SDS011;7742;44.320;19.820;2023-07-29T11:15:04;20.40;;;19.30;;
15281;SDS011;7742;44.320;19.820;2023-07-29T11:17:33;20.42;;;19.33;;
15281;SDS011;7742;44.320;19.820;2023-07-29T11:20:01;20.67;;;19.48;;
15281;SDS011;7742;44.320;19.820;2023-07-29T11:22:28;19.63;;;18.52;;
15281;SDS011;7742;44.320;19.820;2023-07-29T11:24:55;20.92;;;19.75;;
15281;SDS011;7742;44.320;19.820;2023-07-29T11:27:22;20.50;;;19.43;;
15281;SDS011;7742;44.320;19.820;2023-07-29T11:29:49;20.90;;;19.80;;
15281;SDS011;7742;44.320;19.820;2023-07-29T11:32:16;23.20;;;22.10;;
15281;SDS011;7742;44.320;19.820;2023-07-29T11:34:44;19.50;;;18.33;;
15281;SDS011;7742;44.320;19.820;2023-07-29T11:37:11;18.50;;;17.60;;
15281;SDS011;7742;44.320;19.820;2023-07-29T11:39:39;19.02;;;17.92;;
15281;SDS011;7742;44.320;19.820;2023-07-29T11:42:06;19.98;;;18.77;;
15281;SDS011;7742;44.320;19.820;2023-07-29T11:44:33;19.15;;;18.15;;
15281;SDS011;7742;44.320;19.820;2023-07-29T11:47:00;20.42;;;19.42;;
15281;SDS011;7742;44.320;19.820;2023-07-29T11:49:27;19.90;;;18.90;;
15281;SDS011;7742;44.320;19.820;2023-07-29T11:51:56;19.77;;;18.70;;
15281;SDS011;7742;44.320;19.820;2023-07-29T11:54:23;20.42;;;19.40;;
15281;SDS011;7742;44.320;19.820;2023-07-29T11:56:51;20.63;;;19.52;;
15281;SDS011;7742;44.320;19.820;2023-07-29T11:59:19;21.58;;;20.55;;
15281;SDS011;7742;44.320;19.820;2023-07-29T12:01:46;20.70;;;19.60;;
15281;SDS011;7742;44.320;19.820;2023-07-29T12:04:13;20.63;;;19.53;;
15281;SDS011;7742;44.320;19.820;2023-07-29T12:06:40;20.67;;;19.57;;
15281;SDS011;7742;44.320;19.820;2023-07-29T12:09:08;22.00;;;20.80;;
15281;SDS011;7742;44.320;19.820;2023-07-29T12:11:36;20.27;;;19.33;;
15281;SDS011;7742;44.320;19.820;2023-07-29T12:14:03;19.77;;;18.67;;
15281;SDS011;7742;44.320;19.820;2023-07-29T12:16:30;18.45;;;17.45;;
15281;SDS011;7742;44.320;19.820;2023-07-29T12:19:00;18.95;;;17.98;;
15281;SDS011;7742;44.320;19.820;2023-07-29T12:21:27;18.73;;;17.67;;
15281;SDS011;7742;44.320;19.820;2023-07-29T12:23:55;19.10;;;18.00;;
15281;SDS011;7742;44.320;19.820;2023-07-29T12:26:28;18.60;;;17.60;;
15281;SDS011;7742;44.320;19.820;2023-07-29T12:28:55;19.42;;;18.33;;
15281;SDS011;7742;44.320;19.820;2023-07-29T12:31:28;19.55;;;18.45;;
15281;SDS011;7742;44.320;19.820;2023-07-29T12:33:57;23.55;;;22.35;;
15281;SDS011;7742;44.320;19.820;2023-07-29T12:36:27;19.63;;;18.63;;
15281;SDS011;7742;44.320;19.820;2023-07-29T12:38:54;19.27;;;18.27;;
15281;SDS011;7742;44.320;19.820;2023-07-29T12:41:25;19.30;;;18.23;;
15281;SDS011;7742;44.320;19.820;2023-07-29T12:43:54;20.10;;;18.90;;
15281;SDS011;7742;44.320;19.820;2023-07-29T12:46:21;20.67;;;19.48;;
15281;SDS011;7742;44.320;19.820;2023-07-29T12:48:48;19.30;;;18.30;;
15281;SDS011;7742;44.320;19.820;2023-07-29T12:51:15;19.60;;;18.60;;
15281;SDS011;7742;44.320;19.820;2023-07-29T12:53:42;20.40;;;19.30;;
15281;SDS011;7742;44.320;19.820;2023-07-29T12:56:09;19.02;;;17.92;;
15281;SDS011;7742;44.320;19.820;2023-07-29T12:58:36;19.87;;;18.57;;
15281;SDS011;7742;44.320;19.820;2023-07-29T13:01:04;19.77;;;18.67;;
15281;SDS011;7742;44.320;19.820;2023-07-29T13:03:31;20.17;;;18.80;;
15281;SDS011;7742;44.320;19.820;2023-07-29T13:05:58;21.08;;;19.85;;
15281;SDS011;7742;44.320;19.820;2023-07-29T13:08:25;21.27;;;20.10;;
15281;SDS011;7742;44.320;19.820;2023-07-29T13:10:52;18.77;;;17.58;;
15281;SDS011;7742;44.320;19.820;2023-07-29T13:13:19;17.85;;;16.85;;
15281;SDS011;7742;44.320;19.820;2023-07-29T13:15:46;18.20;;;17.10;;
15281;SDS011;7742;44.320;19.820;2023-07-29T13:18:15;19.33;;;18.13;;
15281;SDS011;7742;44.320;19.820;2023-07-29T13:20:42;18.98;;;17.88;;
15281;SDS011;7742;44.320;19.820;2023-07-29T13:23:09;19.20;;;18.10;;
15281;SDS011;7742;44.320;19.820;2023-07-29T13:25:36;19.92;;;18.80;;
15281;SDS011;7742;44.320;19.820;2023-07-29T13:28:03;20.27;;;19.17;;
15281;SDS011;7742;44.320;19.820;2023-07-29T13:30:30;21.42;;;20.40;;
15281;SDS011;7742;44.320;19.820;2023-07-29T13:32:57;20.30;;;19.15;;
15281;SDS011;7742;44.320;19.820;2023-07-29T13:35:25;20.10;;;18.80;;
15281;SDS011;7742;44.320;19.820;2023-07-29T13:37:52;21.48;;;20.08;;
15281;SDS011;7742;44.320;19.820;2023-07-29T13:40:19;20.58;;;19.48;;
15281;SDS011;7742;44.320;19.820;2023-07-29T13:42:46;21.23;;;20.00;;
15281;SDS011;7742;44.320;19.820;2023-07-29T13:45:13;20.75;;;19.52;;
15281;SDS011;7742;44.320;19.820;2023-07-29T13:47:40;20.50;;;19.40;;
15281;SDS011;7742;44.320;19.820;2023-07-29T13:50:07;20.80;;;19.80;;
15281;SDS011;7742;44.320;19.820;2023-07-29T13:52:36;21.15;;;20.05;;
15281;SDS011;7742;44.320;19.820;2023-07-29T13:55:04;20.42;;;19.42;;
15281;SDS011;7742;44.320;19.820;2023-07-29T13:57:31;19.80;;;18.70;;
15281;SDS011;7742;44.320;19.820;2023-07-29T13:59:58;19.15;;;18.10;;
15281;SDS011;7742;44.320;19.820;2023-07-29T14:02:25;18.80;;;17.90;;
15281;SDS011;7742;44.320;19.820;2023-07-29T14:04:52;19.58;;;18.48;;
15281;SDS011;7742;44.320;19.820;2023-07-29T14:07:19;19.67;;;18.67;;
15281;SDS011;7742;44.320;19.820;2023-07-29T14:09:47;19.95;;;18.85;;
15281;SDS011;7742;44.320;19.820;2023-07-29T14:12:14;20.20;;;19.10;;
15281;SDS011;7742;44.320;19.820;2023-07-29T14:14:41;20.23;;;19.05;;
15281;SDS011;7742;44.320;19.820;2023-07-29T14:17:08;20.38;;;19.27;;
15281;SDS011;7742;44.320;19.820;2023-07-29T14:19:35;19.50;;;18.50;;
15281;SDS011;7742;44.320;19.820;2023-07-29T14:22:02;19.92;;;18.70;;
15281;SDS011;7742;44.320;19.820;2023-07-29T14:24:30;19.00;;;18.10;;
15281;SDS011;7742;44.320;19.820;2023-07-29T14:26:58;19.20;;;18.20;;
15281;SDS011;7742;44.320;19.820;2023-07-29T14:29:25;18.10;;;17.20;;
15281;SDS011;7742;44.320;19.820;2023-07-29T14:31:52;18.83;;;17.83;;
15281;SDS011;7742;44.320;19.820;2023-07-29T14:34:19;18.90;;;17.90;;